createdAt,value
2018-11-04T00:00:49.671Z,1011.33
2018-11-04T00:01:49.872Z,1011.28
2018-11-04T00:02:49.898Z,1011.34
2018-11-04T00:03:49.895Z,1011.24
2018-11-04T00:04:50.219Z,1011.25
2018-11-04T00:05:50.012Z,1011.28
2018-11-04T00:06:50.532Z,1011.21
2018-11-04T00:07:50.906Z,1011.28
2018-11-04T00:08:51.063Z,1011.26
2018-11-04T00:09:51.580Z,1011.26
2018-11-04T00:10:51.591Z,1011.26
2018-11-04T00:11:51.990Z,1011.22
2018-11-04T00:12:51.997Z,1011.27
2018-11-04T00:13:52.093Z,1011.25
2018-11-04T00:14:52.020Z,1011.22
2018-11-04T00:15:52.293Z,1011.26
2018-11-04T00:16:52.605Z,1011.24
2018-11-04T00:17:52.807Z,1011.29
2018-11-04T00:18:53.132Z,1011.29
2018-11-04T00:19:53.553Z,1011.22
2018-11-04T00:20:53.912Z,1011.29
2018-11-04T00:21:53.853Z,1011.17
2018-11-04T00:22:54.525Z,1011.27
2018-11-04T00:23:54.368Z,1011.24
2018-11-04T00:24:54.692Z,1011.22
2018-11-04T00:25:55.109Z,1011.22
2018-11-04T00:26:55.591Z,1011.20
2018-11-04T00:27:55.943Z,1011.17
2018-11-04T00:28:56.566Z,1011.19
2018-11-04T00:29:56.511Z,1011.19
2018-11-04T00:30:56.798Z,1011.19
2018-11-04T00:31:57.109Z,1011.20
2018-11-04T00:32:57.499Z,1011.13
2018-11-04T00:33:57.855Z,1011.18
2018-11-04T00:34:58.356Z,1011.12
2018-11-04T00:35:58.774Z,1011.10
2018-11-04T00:36:59.483Z,1011.13
2018-11-04T00:37:59.341Z,1011.11
2018-11-04T00:38:59.736Z,1011.08
2018-11-04T00:39:59.785Z,1011.09
2018-11-04T00:41:00.170Z,1011.10
2018-11-04T00:42:00.508Z,1011.12
2018-11-04T00:43:00.938Z,1011.08
2018-11-04T00:44:01.265Z,1011.03
2018-11-04T00:45:02.247Z,1011.04
2018-11-04T00:46:01.666Z,1011.08
2018-11-04T00:47:02.192Z,1011.02
2018-11-04T00:48:02.603Z,1011.07
2018-11-04T00:49:02.945Z,1011.00
2018-11-04T00:50:03.358Z,1011.04
2018-11-04T00:51:03.993Z,1010.96
2018-11-04T00:52:04.397Z,1010.89
2018-11-04T00:53:04.609Z,1010.92
2018-11-04T00:54:04.923Z,1010.93
2018-11-04T00:55:05.441Z,1010.94
2018-11-04T00:56:05.361Z,1010.90
2018-11-04T00:57:05.841Z,1010.90
2018-11-04T00:58:05.875Z,1010.81
2018-11-04T00:59:06.085Z,1010.88
2018-11-04T01:00:06.084Z,1010.86
2018-11-04T01:01:06.302Z,1010.89
2018-11-04T01:02:06.431Z,1010.91
2018-11-04T01:03:06.559Z,1010.79
2018-11-04T01:04:06.720Z,1010.79
2018-11-04T01:05:06.836Z,1010.77
2018-11-04T01:06:06.950Z,1010.70
2018-11-04T01:07:07.140Z,1010.71
2018-11-04T01:08:07.249Z,1010.62
2018-11-04T01:09:07.179Z,1010.63
2018-11-04T01:10:07.054Z,1010.72
2018-11-04T01:11:07.697Z,1010.66
2018-11-04T01:12:07.802Z,1010.71
2018-11-04T01:13:08.002Z,1010.66
2018-11-04T01:14:08.226Z,1010.57
2018-11-04T01:15:08.443Z,1010.66
2018-11-04T01:16:08.192Z,1010.66
2018-11-04T01:17:09.134Z,1010.54
2018-11-04T01:18:09.027Z,1010.54
2018-11-04T01:20:09.380Z,1010.52
2018-11-04T01:21:09.867Z,1010.46
2018-11-04T01:22:10.185Z,1010.48
2018-11-04T01:23:10.570Z,1010.50
2018-11-04T01:24:10.943Z,1010.49
2018-11-04T01:25:11.104Z,1010.49
2018-11-04T01:26:11.584Z,1010.37
2018-11-04T01:27:11.875Z,1010.32
2018-11-04T01:28:12.245Z,1010.33
2018-11-04T01:29:12.724Z,1010.32
2018-11-04T01:30:13.148Z,1010.29
2018-11-04T01:31:13.482Z,1010.26
2018-11-04T01:32:13.806Z,1010.29
2018-11-04T01:33:14.122Z,1010.28
2018-11-04T01:34:14.398Z,1010.28
2018-11-04T01:35:15.650Z,1010.26
2018-11-04T01:36:14.971Z,1010.31
2018-11-04T01:37:15.420Z,1010.23
2018-11-04T01:38:15.803Z,1010.22
2018-11-04T01:39:16.255Z,1010.19
2018-11-04T01:40:17.228Z,1010.21
2018-11-04T01:41:17.109Z,1010.15
2018-11-04T01:42:17.427Z,1010.22
2018-11-04T01:43:17.771Z,1010.21
2018-11-04T01:44:18.288Z,1010.12
2018-11-04T01:45:18.371Z,1010.14
2018-11-04T01:46:18.785Z,1010.04
2018-11-04T01:47:19.402Z,1010.14
2018-11-04T01:48:19.922Z,1010.07
2018-11-04T01:49:20.333Z,1010.05
2018-11-04T01:50:20.354Z,1010.05
2018-11-04T01:51:20.862Z,1010.11
2018-11-04T01:52:20.972Z,1010.05
2018-11-04T01:53:21.286Z,1010.05
2018-11-04T01:54:21.601Z,1010.03
2018-11-04T01:55:21.867Z,1010.00
2018-11-04T01:56:21.922Z,1009.98
2018-11-04T01:57:21.818Z,1010.02
2018-11-04T01:58:22.326Z,1009.95
2018-11-04T01:59:22.206Z,1009.89
2018-11-04T02:00:22.670Z,1009.95
2018-11-04T02:01:22.516Z,1009.85
2018-11-04T02:02:22.778Z,1009.78
2018-11-04T02:03:22.984Z,1009.85
2018-11-04T02:04:23.302Z,1009.65
2018-11-04T02:05:23.464Z,1009.82
2018-11-04T02:06:23.772Z,1009.79
2018-11-04T02:07:24.039Z,1009.63
2018-11-04T02:08:24.279Z,1009.70
2018-11-04T02:09:24.233Z,1009.71
2018-11-04T02:10:24.787Z,1009.70
2018-11-04T02:11:24.714Z,1009.72
2018-11-04T02:12:25.029Z,1009.63
2018-11-04T02:13:25.387Z,1009.64
2018-11-04T02:14:25.750Z,1009.58
2018-11-04T02:15:26.091Z,1009.53
2018-11-04T02:16:26.379Z,1009.60
2018-11-04T02:17:26.792Z,1009.63
2018-11-04T02:18:27.289Z,1009.62
2018-11-04T02:20:27.638Z,1009.58
2018-11-04T02:21:28.261Z,1009.56
2018-11-04T02:22:28.158Z,1009.49
2018-11-04T02:23:28.574Z,1009.45
2018-11-04T02:24:28.879Z,1009.45
2018-11-04T02:25:29.244Z,1009.45
2018-11-04T02:26:29.517Z,1009.50
2018-11-04T02:27:29.791Z,1009.47
2018-11-04T02:28:30.093Z,1009.37
2018-11-04T02:29:30.461Z,1009.39
2018-11-04T02:30:30.878Z,1009.43
2018-11-04T02:31:31.187Z,1009.43
2018-11-04T02:32:31.832Z,1009.47
2018-11-04T02:33:31.814Z,1009.47
2018-11-04T02:34:36.673Z,1009.40
2018-11-04T02:35:32.550Z,1009.40
2018-11-04T02:36:32.890Z,1009.43
2018-11-04T02:37:33.968Z,1009.46
2018-11-04T02:38:33.964Z,1009.44
2018-11-04T02:39:34.895Z,1009.49
2018-11-04T02:40:35.226Z,1009.37
2018-11-04T02:41:35.728Z,1009.38
2018-11-04T02:42:35.733Z,1009.47
2018-11-04T02:43:36.247Z,1009.47
2018-11-04T02:44:36.102Z,1009.32
2018-11-04T02:45:36.678Z,1009.36
2018-11-04T02:46:36.578Z,1009.38
2018-11-04T02:47:37.190Z,1009.38
2018-11-04T02:48:37.246Z,1009.37
2018-11-04T02:49:37.447Z,1009.36
2018-11-04T02:50:37.642Z,1009.36
2018-11-04T02:51:37.718Z,1009.28
2018-11-04T02:52:37.782Z,1009.33
2018-11-04T02:53:37.950Z,1009.35
2018-11-04T02:54:38.021Z,1009.33
2018-11-04T02:55:38.133Z,1009.25
2018-11-04T02:56:38.281Z,1009.29
2018-11-04T02:57:38.582Z,1009.31
2018-11-04T02:58:38.760Z,1009.31
2018-11-04T02:59:38.868Z,1009.28
2018-11-04T03:00:39.024Z,1009.31
2018-11-04T03:01:39.253Z,1009.21
2018-11-04T03:02:39.468Z,1009.20
2018-11-04T03:03:39.768Z,1009.20
2018-11-04T03:04:39.554Z,1009.21
2018-11-04T03:05:39.862Z,1009.15
2018-11-04T03:06:40.152Z,1009.19
2018-11-04T03:07:40.606Z,1009.19
2018-11-04T03:08:40.953Z,1009.17
2018-11-04T03:09:42.261Z,1009.21
2018-11-04T03:10:41.613Z,1009.08
2018-11-04T03:11:42.009Z,1009.13
2018-11-04T03:12:42.522Z,1009.14
2018-11-04T03:13:42.428Z,1009.17
2018-11-04T03:14:42.620Z,1009.19
2018-11-04T03:15:42.773Z,1009.11
2018-11-04T03:16:42.683Z,1009.21
2018-11-04T03:17:43.060Z,1009.19
2018-11-04T03:18:43.420Z,1009.06
2018-11-04T03:19:43.927Z,1009.14
2018-11-04T03:20:43.840Z,1009.11
2018-11-04T03:21:44.217Z,1009.03
2018-11-04T03:22:44.529Z,1009.08
2018-11-04T03:23:44.797Z,1009.10
2018-11-04T03:24:45.609Z,1009.03
2018-11-04T03:25:45.322Z,1009.06
2018-11-04T03:26:45.700Z,1009.04
2018-11-04T03:27:46.321Z,1009.06
2018-11-04T03:28:46.237Z,1009.09
2018-11-04T03:29:46.518Z,1008.98
2018-11-04T03:30:46.892Z,1009.06
2018-11-04T03:31:47.189Z,1009.05
2018-11-04T03:32:47.828Z,1009.07
2018-11-04T03:33:47.670Z,1009.00
2018-11-04T03:34:48.170Z,1009.07
2018-11-04T03:35:49.072Z,1009.03
2018-11-04T03:36:49.833Z,1008.99
2018-11-04T03:37:50.028Z,1009.03
2018-11-04T03:38:49.930Z,1009.01
2018-11-04T03:39:51.676Z,1008.94
2018-11-04T03:40:51.087Z,1008.99
2018-11-04T03:41:51.376Z,1008.96
2018-11-04T03:42:51.591Z,1008.83
2018-11-04T03:43:51.251Z,1008.86
2018-11-04T03:44:51.815Z,1008.89
2018-11-04T03:45:51.918Z,1008.90
2018-11-04T03:46:51.930Z,1008.92
2018-11-04T03:47:52.307Z,1008.93
2018-11-04T03:48:52.548Z,1008.91
2018-11-04T03:49:52.724Z,1008.90
2018-11-04T03:50:52.933Z,1008.91
2018-11-04T03:51:53.295Z,1008.93
2018-11-04T03:53:53.582Z,1008.95
2018-11-04T03:54:53.806Z,1008.83
2018-11-04T03:55:53.919Z,1008.84
2018-11-04T03:56:54.013Z,1008.90
2018-11-04T03:57:53.911Z,1008.82
2018-11-04T03:58:54.331Z,1008.81
2018-11-04T03:59:54.703Z,1008.79
2018-11-04T04:00:55.037Z,1008.81
2018-11-04T04:01:55.510Z,1008.82
2018-11-04T04:02:55.799Z,1008.74
2018-11-04T04:03:56.157Z,1008.82
2018-11-04T04:04:56.445Z,1008.77
2018-11-04T04:05:56.933Z,1008.80
2018-11-04T04:06:57.364Z,1008.75
2018-11-04T04:07:57.727Z,1008.76
2018-11-04T04:08:58.032Z,1008.77
2018-11-04T04:09:58.345Z,1008.73
2018-11-04T04:10:58.643Z,1008.65
2018-11-04T04:11:59.015Z,1008.66
2018-11-04T04:12:59.400Z,1008.72
2018-11-04T04:13:59.898Z,1008.67
2018-11-04T04:15:00.279Z,1008.70
2018-11-04T04:16:00.682Z,1008.73
2018-11-04T04:17:01.113Z,1008.75
2018-11-04T04:18:01.406Z,1008.73
2018-11-04T04:19:01.686Z,1008.72
2018-11-04T04:20:02.342Z,1008.73
2018-11-04T04:21:02.509Z,1008.65
2018-11-04T04:22:02.909Z,1008.66
2018-11-04T04:23:03.319Z,1008.70
2018-11-04T04:24:03.736Z,1008.67
2018-11-04T04:25:04.460Z,1008.66
2018-11-04T04:26:04.279Z,1008.68
2018-11-04T04:27:04.790Z,1008.61
2018-11-04T04:28:05.196Z,1008.62
2018-11-04T04:29:05.430Z,1008.60
2018-11-04T04:30:05.929Z,1008.60
2018-11-04T04:31:06.117Z,1008.60
2018-11-04T04:32:06.160Z,1008.59
2018-11-04T04:33:06.048Z,1008.60
2018-11-04T04:34:06.565Z,1008.61
2018-11-04T04:35:06.572Z,1008.61
2018-11-04T04:36:06.981Z,1008.59
2018-11-04T04:37:06.988Z,1008.57
2018-11-04T04:38:06.883Z,1008.58
2018-11-04T04:39:07.209Z,1008.53
2018-11-04T04:40:07.411Z,1008.54
2018-11-04T04:41:07.353Z,1008.54
2018-11-04T04:42:07.637Z,1008.54
2018-11-04T04:43:07.430Z,1008.56
2018-11-04T04:44:07.834Z,1008.50
2018-11-04T04:45:08.648Z,1008.54
2018-11-04T04:46:08.817Z,1008.52
2018-11-04T04:47:08.625Z,1008.50
2018-11-04T04:48:09.259Z,1008.50
2018-11-04T04:49:09.158Z,1008.46
2018-11-04T04:50:09.608Z,1008.49
2018-11-04T04:51:09.980Z,1008.43
2018-11-04T04:52:10.486Z,1008.49
2018-11-04T04:53:10.781Z,1008.44
2018-11-04T04:54:11.126Z,1008.46
2018-11-04T04:55:11.783Z,1008.41
2018-11-04T04:56:11.653Z,1008.49
2018-11-04T04:57:12.245Z,1008.50
2018-11-04T04:58:12.030Z,1008.49
2018-11-04T04:59:12.430Z,1008.47
2018-11-04T05:00:12.946Z,1008.46
2018-11-04T05:01:13.236Z,1008.55
2018-11-04T05:02:13.548Z,1008.46
2018-11-04T05:03:13.839Z,1008.44
2018-11-04T05:04:14.163Z,1008.44
2018-11-04T05:05:15.041Z,1008.40
2018-11-04T05:06:15.092Z,1008.44
2018-11-04T05:07:14.906Z,1008.38
2018-11-04T05:08:15.216Z,1008.48
2018-11-04T05:09:15.528Z,1008.46
2018-11-04T05:10:16.320Z,1008.44
2018-11-04T05:11:16.154Z,1008.47
2018-11-04T05:12:16.481Z,1008.45
2018-11-04T05:13:16.989Z,1008.45
2018-11-04T05:14:17.404Z,1008.45
2018-11-04T05:15:18.096Z,1008.40
2018-11-04T05:16:18.104Z,1008.41
2018-11-04T05:17:19.047Z,1008.45
2018-11-04T05:18:19.757Z,1008.46
2018-11-04T05:19:19.967Z,1008.37
2018-11-04T05:20:20.395Z,1008.43
2018-11-04T05:21:20.804Z,1008.48
2018-11-04T05:22:21.012Z,1008.38
2018-11-04T05:23:21.014Z,1008.34
2018-11-04T05:24:21.188Z,1008.37
2018-11-04T05:25:21.259Z,1008.40
2018-11-04T05:26:21.422Z,1008.39
2018-11-04T05:27:21.984Z,1008.43
2018-11-04T05:28:21.664Z,1008.37
2018-11-04T05:29:21.772Z,1008.36
2018-11-04T05:30:21.963Z,1008.34
2018-11-04T05:31:22.071Z,1008.35
2018-11-04T05:32:22.006Z,1008.41
2018-11-04T05:33:22.347Z,1008.35
2018-11-04T05:34:22.446Z,1008.36
2018-11-04T05:35:22.553Z,1008.30
2018-11-04T05:36:22.637Z,1008.31
2018-11-04T05:37:22.862Z,1008.34
2018-11-04T05:38:23.109Z,1008.28
2018-11-04T05:39:23.169Z,1008.25
2018-11-04T05:40:23.383Z,1008.24
2018-11-04T05:41:23.575Z,1008.24
2018-11-04T05:42:23.770Z,1008.25
2018-11-04T05:43:24.067Z,1008.19
2018-11-04T05:44:24.234Z,1008.22
2018-11-04T05:45:24.110Z,1008.28
2018-11-04T05:46:24.508Z,1008.28
2018-11-04T05:47:26.208Z,1008.17
2018-11-04T05:48:24.962Z,1008.16
2018-11-04T05:49:25.335Z,1008.18
2018-11-04T05:50:25.893Z,1008.19
2018-11-04T05:51:25.793Z,1008.22
2018-11-04T05:52:26.163Z,1008.22
2018-11-04T05:53:26.567Z,1008.17
2018-11-04T05:54:26.947Z,1008.19
2018-11-04T05:55:27.300Z,1008.25
2018-11-04T05:56:27.652Z,1008.08
2018-11-04T05:57:28.084Z,1008.10
2018-11-04T05:58:28.440Z,1008.19
2018-11-04T05:59:28.754Z,1008.15
2018-11-04T06:00:29.101Z,1008.16
2018-11-04T06:01:29.391Z,1008.13
2018-11-04T06:02:29.829Z,1008.13
2018-11-04T06:03:30.221Z,1008.19
2018-11-04T06:04:30.223Z,1008.16
2018-11-04T06:05:30.536Z,1008.16
2018-11-04T06:06:30.851Z,1008.16
2018-11-04T06:07:31.161Z,1008.14
2018-11-04T06:08:31.584Z,1008.19
2018-11-04T06:09:31.880Z,1008.23
2018-11-04T06:10:32.312Z,1008.14
2018-11-04T06:11:32.631Z,1008.16
2018-11-04T06:12:32.967Z,1008.16
2018-11-04T06:13:33.928Z,1008.21
2018-11-04T06:14:34.781Z,1008.21
2018-11-04T06:15:35.187Z,1008.18
2018-11-04T06:16:35.595Z,1008.19
2018-11-04T06:17:36.027Z,1008.14
2018-11-04T06:18:36.252Z,1008.19
2018-11-04T06:19:36.949Z,1008.19
2018-11-04T06:20:36.543Z,1008.14
2018-11-04T06:21:36.754Z,1008.25
2018-11-04T06:22:36.873Z,1008.22
2018-11-04T06:23:36.858Z,1008.24
2018-11-04T06:24:37.230Z,1008.24
2018-11-04T06:25:37.530Z,1008.29
2018-11-04T06:26:37.614Z,1008.20
2018-11-04T06:27:37.918Z,1008.25
2018-11-04T06:28:37.992Z,1008.27
2018-11-04T06:29:38.066Z,1008.25
2018-11-04T06:30:38.353Z,1008.28
2018-11-04T06:31:38.539Z,1008.24
2018-11-04T06:32:38.745Z,1008.29
2018-11-04T06:33:39.139Z,1008.30
2018-11-04T06:34:39.317Z,1008.29
2018-11-04T06:35:39.234Z,1008.30
2018-11-04T06:36:39.753Z,1008.27
2018-11-04T06:37:40.154Z,1008.28
2018-11-04T06:38:40.481Z,1008.27
2018-11-04T06:39:41.992Z,1008.30
2018-11-04T06:40:41.297Z,1008.26
2018-11-04T06:41:41.610Z,1008.23
2018-11-04T06:42:42.009Z,1008.24
2018-11-04T06:43:42.423Z,1008.26
2018-11-04T06:44:42.861Z,1008.34
2018-11-04T06:45:43.181Z,1008.32
2018-11-04T06:46:43.485Z,1008.20
2018-11-04T06:47:43.959Z,1008.25
2018-11-04T06:48:44.235Z,1008.17
2018-11-04T06:49:44.640Z,1008.14
2018-11-04T06:50:45.050Z,1008.18
2018-11-04T06:51:45.370Z,1008.27
2018-11-04T06:52:45.690Z,1008.20
2018-11-04T06:53:46.099Z,1008.17
2018-11-04T06:54:46.525Z,1008.25
2018-11-04T06:55:47.200Z,1008.20
2018-11-04T06:56:46.979Z,1008.25
2018-11-04T06:57:47.525Z,1008.18
2018-11-04T06:58:47.353Z,1008.17
2018-11-04T06:59:47.666Z,1008.18
2018-11-04T07:00:48.379Z,1008.29
2018-11-04T07:01:48.996Z,1008.17
2018-11-04T07:02:48.916Z,1008.20
2018-11-04T07:03:49.932Z,1008.28
2018-11-04T07:04:50.045Z,1008.19
2018-11-04T07:05:50.460Z,1008.18
2018-11-04T07:06:50.470Z,1008.17
2018-11-04T07:07:50.797Z,1008.16
2018-11-04T07:08:51.217Z,1008.15
2018-11-04T07:09:51.519Z,1008.17
2018-11-04T07:10:51.823Z,1008.13
2018-11-04T07:11:51.828Z,1008.11
2018-11-04T07:12:51.950Z,1008.12
2018-11-04T07:13:51.846Z,1008.12
2018-11-04T07:14:52.229Z,1008.11
2018-11-04T07:15:52.532Z,1008.12
2018-11-04T07:16:52.619Z,1008.13
2018-11-04T07:17:52.913Z,1008.14
2018-11-04T07:18:53.311Z,1008.15
2018-11-04T07:19:53.473Z,1008.14
2018-11-04T07:20:53.601Z,1008.14
2018-11-04T07:21:53.875Z,1008.20
2018-11-04T07:22:53.908Z,1008.15
2018-11-04T07:23:54.173Z,1008.21
2018-11-04T07:24:54.287Z,1008.19
2018-11-04T07:25:54.433Z,1008.22
2018-11-04T07:26:54.446Z,1008.21
2018-11-04T07:27:54.400Z,1008.19
2018-11-04T07:28:54.689Z,1008.16
2018-11-04T07:29:55.047Z,1008.17
2018-11-04T07:30:55.397Z,1008.10
2018-11-04T07:31:55.827Z,1008.20
2018-11-04T07:32:56.107Z,1008.18
2018-11-04T07:33:56.534Z,1008.10
2018-11-04T07:34:56.934Z,1008.11
2018-11-04T07:35:57.595Z,1008.18
2018-11-04T07:36:57.373Z,1008.10
2018-11-04T07:37:57.779Z,1008.17
2018-11-04T07:38:58.074Z,1008.10
2018-11-04T07:39:58.389Z,1008.07
2018-11-04T07:40:58.751Z,1008.18
2018-11-04T07:41:59.119Z,1008.12
2018-11-04T07:42:59.915Z,1008.15
2018-11-04T07:43:59.750Z,1008.18
2018-11-04T07:45:00.165Z,1008.11
2018-11-04T07:46:00.619Z,1008.16
2018-11-04T07:47:00.993Z,1008.10
2018-11-04T07:48:01.807Z,1008.14
2018-11-04T07:49:01.423Z,1008.13
2018-11-04T07:50:01.552Z,1008.14
2018-11-04T07:51:01.804Z,1008.11
2018-11-04T07:52:01.658Z,1008.13
2018-11-04T07:53:02.268Z,1008.11
2018-11-04T07:54:02.771Z,1008.01
2018-11-04T07:55:02.873Z,1008.14
2018-11-04T07:56:02.890Z,1008.09
2018-11-04T07:57:04.110Z,1008.08
2018-11-04T07:58:04.429Z,1008.15
2018-11-04T07:59:04.214Z,1008.01
2018-11-04T08:00:04.530Z,1008.12
2018-11-04T08:01:05.655Z,1008.07
2018-11-04T08:02:05.844Z,1008.12
2018-11-04T08:03:06.032Z,1008.21
2018-11-04T08:04:06.401Z,1008.13
2018-11-04T08:05:06.510Z,1008.15
2018-11-04T08:06:06.826Z,1008.06
2018-11-04T08:07:06.874Z,1008.06
2018-11-04T08:08:07.040Z,1008.07
2018-11-04T08:09:07.140Z,1008.12
2018-11-04T08:10:07.406Z,1008.11
2018-11-04T08:11:07.432Z,1008.15
2018-11-04T08:12:07.738Z,1008.14
2018-11-04T08:13:07.935Z,1008.10
2018-11-04T08:14:08.022Z,1008.07
2018-11-04T08:15:08.319Z,1008.04
2018-11-04T08:16:08.411Z,1008.09
2018-11-04T08:17:08.424Z,1008.11
2018-11-04T08:18:08.646Z,1008.05
2018-11-04T08:19:08.786Z,1008.06
2018-11-04T08:20:08.801Z,1008.13
2018-11-04T08:21:09.002Z,1008.05
2018-11-04T08:22:09.754Z,1008.02
2018-11-04T08:23:09.519Z,1008.05
2018-11-04T08:24:10.029Z,1008.10
2018-11-04T08:25:09.949Z,1008.18
2018-11-04T08:26:10.329Z,1008.14
2018-11-04T08:27:10.689Z,1008.13
2018-11-04T08:28:11.105Z,1008.09
2018-11-04T08:29:11.505Z,1008.13
2018-11-04T08:30:12.031Z,1008.07
2018-11-04T08:31:12.338Z,1008.07
2018-11-04T08:32:12.756Z,1008.13
2018-11-04T08:33:13.074Z,1008.03
2018-11-04T08:34:13.385Z,1008.01
2018-11-04T08:35:13.767Z,1008.14
2018-11-04T08:36:14.241Z,1008.10
2018-11-04T08:37:14.672Z,1008.17
2018-11-04T08:38:15.075Z,1008.07
2018-11-04T08:39:15.462Z,1008.11
2018-11-04T08:40:16.433Z,1008.12
2018-11-04T08:41:16.210Z,1008.07
2018-11-04T08:42:16.511Z,1008.12
2018-11-04T08:43:16.845Z,1008.04
2018-11-04T08:44:17.247Z,1008.09
2018-11-04T08:45:17.705Z,1008.12
2018-11-04T08:46:18.557Z,1008.16
2018-11-04T08:47:19.076Z,1008.14
2018-11-04T08:48:19.487Z,1008.13
2018-11-04T08:49:19.917Z,1008.10
2018-11-04T08:50:19.913Z,1008.11
2018-11-04T08:51:21.045Z,1008.02
2018-11-04T08:52:21.056Z,1008.04
2018-11-04T08:53:21.568Z,1007.93
2018-11-04T08:54:21.219Z,1008.03
2018-11-04T08:55:21.278Z,1008.03
2018-11-04T08:56:21.395Z,1008.00
2018-11-04T08:57:22.364Z,1007.95
2018-11-04T08:58:21.912Z,1007.96
2018-11-04T08:59:21.903Z,1007.91
2018-11-04T09:00:22.423Z,1007.92
2018-11-04T09:01:22.190Z,1007.88
2018-11-04T09:02:22.437Z,1007.83
2018-11-04T09:03:22.624Z,1007.91
2018-11-04T09:04:22.840Z,1007.85
2018-11-04T09:05:23.997Z,1007.78
2018-11-04T09:06:23.191Z,1007.81
2018-11-04T09:07:23.399Z,1007.83
2018-11-04T09:09:23.684Z,1007.82
2018-11-04T09:10:23.875Z,1007.84
2018-11-04T09:12:23.992Z,1007.83
2018-11-04T09:13:24.063Z,1007.83
2018-11-04T09:14:24.185Z,1007.79
2018-11-04T09:15:24.179Z,1007.83
2018-11-04T09:16:24.135Z,1007.83
2018-11-04T09:17:24.803Z,1007.87
2018-11-04T09:18:24.621Z,1007.78
2018-11-04T09:19:24.943Z,1007.87
2018-11-04T09:20:25.461Z,1007.85
2018-11-04T09:21:25.769Z,1007.86
2018-11-04T09:22:26.358Z,1007.78
2018-11-04T09:23:27.012Z,1007.86
2018-11-04T09:24:26.822Z,1007.79
2018-11-04T09:25:27.232Z,1007.82
2018-11-04T09:26:27.777Z,1007.81
2018-11-04T09:27:27.650Z,1007.80
2018-11-04T09:28:28.161Z,1007.80
2018-11-04T09:29:28.092Z,1007.80
2018-11-04T09:30:28.089Z,1007.73
2018-11-04T09:31:28.557Z,1007.72
2018-11-04T09:32:28.943Z,1007.78
2018-11-04T09:33:29.333Z,1007.72
2018-11-04T09:34:29.946Z,1007.72
2018-11-04T09:35:29.939Z,1007.72
2018-11-04T09:36:31.236Z,1007.70
2018-11-04T09:37:30.617Z,1007.71
2018-11-04T09:38:31.023Z,1007.64
2018-11-04T09:39:31.464Z,1007.62
2018-11-04T09:40:31.742Z,1007.62
2018-11-04T09:41:32.049Z,1007.62
2018-11-04T09:42:32.373Z,1007.62
2018-11-04T09:43:32.942Z,1007.61
2018-11-04T09:44:32.889Z,1007.63
2018-11-04T09:45:34.196Z,1007.63
2018-11-04T09:46:34.615Z,1007.63
2018-11-04T09:47:34.720Z,1007.60
2018-11-04T09:48:35.138Z,1007.61
2018-11-04T09:49:35.462Z,1007.71
2018-11-04T09:50:35.868Z,1007.69
2018-11-04T09:51:36.183Z,1007.57
2018-11-04T09:52:36.227Z,1007.65
2018-11-04T09:53:36.706Z,1007.65
2018-11-04T09:54:36.831Z,1007.63
2018-11-04T09:55:36.807Z,1007.64
2018-11-04T09:56:37.003Z,1007.65
2018-11-04T09:57:36.927Z,1007.64
2018-11-04T09:58:37.305Z,1007.64
2018-11-04T09:59:37.497Z,1007.64
2018-11-04T10:00:37.675Z,1007.72
2018-11-04T10:01:37.776Z,1007.70
2018-11-04T10:02:37.980Z,1007.69
2018-11-04T10:03:38.362Z,1007.70
2018-11-04T10:04:38.886Z,1007.69
2018-11-04T10:05:38.940Z,1007.64
2018-11-04T10:06:38.995Z,1007.62
2018-11-04T10:07:39.033Z,1007.65
2018-11-04T10:08:39.173Z,1007.63
2018-11-04T10:09:39.586Z,1007.61
2018-11-04T10:10:39.919Z,1007.63
2018-11-04T10:11:40.234Z,1007.63
2018-11-04T10:12:40.546Z,1007.61
2018-11-04T10:13:40.966Z,1007.51
2018-11-04T10:14:41.481Z,1007.53
2018-11-04T10:15:41.802Z,1007.53
2018-11-04T10:16:42.374Z,1007.53
2018-11-04T10:17:42.664Z,1007.55
2018-11-04T10:18:43.145Z,1007.48
2018-11-04T10:20:43.982Z,1007.56
2018-11-04T10:21:43.873Z,1007.46
2018-11-04T10:22:44.191Z,1007.45
2018-11-04T10:23:44.488Z,1007.52
2018-11-04T10:24:45.192Z,1007.41
2018-11-04T10:25:45.030Z,1007.40
2018-11-04T10:26:45.390Z,1007.38
2018-11-04T10:27:45.996Z,1007.36
2018-11-04T10:28:45.911Z,1007.34
2018-11-04T10:29:46.341Z,1007.20
2018-11-04T10:30:46.743Z,1007.25
2018-11-04T10:31:47.163Z,1007.19
2018-11-04T10:32:47.225Z,1007.21
2018-11-04T10:33:47.592Z,1007.20
2018-11-04T10:34:47.947Z,1007.20
2018-11-04T10:35:49.178Z,1007.21
2018-11-04T10:36:49.178Z,1007.10
2018-11-04T10:37:49.802Z,1007.19
2018-11-04T10:38:50.208Z,1007.19
2018-11-04T10:39:50.529Z,1007.19
2018-11-04T10:40:50.744Z,1007.19
2018-11-04T10:41:50.983Z,1007.19
2018-11-04T10:42:51.269Z,1007.20
2018-11-04T10:43:51.250Z,1007.18
2018-11-04T10:44:51.875Z,1007.14
2018-11-04T10:45:51.710Z,1007.14
2018-11-04T10:46:52.173Z,1007.09
2018-11-04T10:47:52.463Z,1007.06
2018-11-04T10:48:52.668Z,1007.04
2018-11-04T10:49:52.874Z,1007.06
2018-11-04T10:50:53.037Z,1007.09
2018-11-04T10:51:53.262Z,1007.14
2018-11-04T10:52:53.430Z,1007.10
2018-11-04T10:53:53.864Z,1007.09
2018-11-04T10:54:54.064Z,1007.10
2018-11-04T10:55:54.051Z,1007.04
2018-11-04T10:56:54.349Z,1007.09
2018-11-04T10:57:54.702Z,1007.06
2018-11-04T10:58:55.283Z,1007.06
2018-11-04T10:59:55.111Z,1007.07
2018-11-04T11:00:55.523Z,1007.06
2018-11-04T11:01:55.812Z,1007.04
2018-11-04T11:02:56.137Z,1007.01
2018-11-04T11:03:56.460Z,1007.05
2018-11-04T11:04:56.787Z,1007.02
2018-11-04T11:05:57.193Z,1006.99
2018-11-04T11:06:57.589Z,1006.93
2018-11-04T11:07:57.900Z,1006.89
2018-11-04T11:08:58.253Z,1006.86
2018-11-04T11:09:58.558Z,1006.85
2018-11-04T11:10:59.113Z,1006.81
2018-11-04T11:11:58.950Z,1006.81
2018-11-04T11:12:59.259Z,1006.80
2018-11-04T11:13:59.674Z,1006.78
2018-11-04T11:15:00.190Z,1006.77
2018-11-04T11:16:00.010Z,1006.77
2018-11-04T11:17:00.297Z,1006.70
2018-11-04T11:18:00.636Z,1006.70
2018-11-04T11:19:00.946Z,1006.71
2018-11-04T11:20:01.261Z,1006.72
2018-11-04T11:21:01.674Z,1006.70
2018-11-04T11:22:02.385Z,1006.68
2018-11-04T11:23:02.628Z,1006.56
2018-11-04T11:24:02.851Z,1006.61
2018-11-04T11:25:02.812Z,1006.60
2018-11-04T11:26:03.156Z,1006.56
2018-11-04T11:27:04.043Z,1006.52
2018-11-04T11:28:04.034Z,1006.40
2018-11-04T11:29:04.466Z,1006.48
2018-11-04T11:30:04.675Z,1006.37
2018-11-04T11:31:04.688Z,1006.34
2018-11-04T11:32:04.690Z,1006.24
2018-11-04T11:33:05.419Z,1006.25
2018-11-04T11:34:05.317Z,1006.24
2018-11-04T11:35:05.940Z,1006.07
2018-11-04T11:36:06.048Z,1006.08
2018-11-04T11:37:06.271Z,1006.24
2018-11-04T11:38:06.379Z,1006.28
2018-11-04T11:39:06.790Z,1006.20
2018-11-04T11:40:06.999Z,1006.20
2018-11-04T11:41:07.270Z,1006.26
2018-11-04T11:42:07.536Z,1006.24
2018-11-04T11:43:07.224Z,1006.22
2018-11-04T11:44:07.396Z,1006.14
2018-11-04T11:45:07.750Z,1006.13
2018-11-04T11:46:08.103Z,1006.07
2018-11-04T11:47:08.128Z,1006.14
2018-11-04T11:48:08.366Z,1006.01
2018-11-04T11:49:08.476Z,1006.01
2018-11-04T11:50:08.684Z,1005.91
2018-11-04T11:51:08.675Z,1005.94
2018-11-04T11:52:08.878Z,1005.94
2018-11-04T11:53:09.005Z,1006.04
2018-11-04T11:54:09.112Z,1005.89
2018-11-04T11:55:09.467Z,1005.90
2018-11-04T11:56:09.772Z,1005.90
2018-11-04T11:57:10.156Z,1005.87
2018-11-04T11:58:10.521Z,1005.89
2018-11-04T11:59:11.001Z,1005.92
2018-11-04T12:00:11.417Z,1005.94
2018-11-04T12:01:11.922Z,1005.87
2018-11-04T12:02:14.754Z,1005.92
2018-11-04T12:03:12.080Z,1005.91
2018-11-04T12:04:12.396Z,1005.91
2018-11-04T12:05:12.914Z,1005.87
2018-11-04T12:06:12.913Z,1005.90
2018-11-04T12:07:13.246Z,1005.83
2018-11-04T12:08:13.632Z,1005.90
2018-11-04T12:09:14.003Z,1005.84
2018-11-04T12:10:14.980Z,1005.83
2018-11-04T12:11:14.521Z,1005.75
2018-11-04T12:12:14.664Z,1005.79
2018-11-04T12:13:14.608Z,1005.78
2018-11-04T12:14:14.917Z,1005.80
2018-11-04T12:16:15.354Z,1005.73